Date,TemperatureHighF,TemperatureAvgF,TemperatureLowF,DewpointHighF,DewpointAvgF,DewpointLowF,HumidityHigh,HumidityAvg,HumidityLow,PressureMaxIn,PressureMinIn,WindSpeedMaxMPH,WindSpeedAvgMPH,GustSpeedMaxMPH,PrecipitationSumIn
2014-1-1,47.7,38.6,29.7,33.3,27.4,22.7,83,65,47,30.56,30.31,8,0,8,0.00
2014-1-2,46.9,38.3,17.8,46.0,35.6,14.5,97,90,70,30.31,29.91,20,2,20,0.17
2014-1-3,30.9,20.8,12.0,16.3,12.8,7.8,90,72,50,30.62,30.21,16,1,16,0.00
2014-1-4,41.9,32.4,22.5,40.8,23.2,6.6,96,70,42,30.63,30.40,7,0,7,0.00
2014-1-5,53.2,46.3,41.9,47.2,44.0,40.8,98,92,74,30.40,29.86,15,0,15,0.14
2014-1-6,47.8,16.7,2.4,47.0,12.9,-2.4,97,85,64,30.59,29.87,18,3,18,0.05
2014-1-7,21.7,9.0,-1.0,5.7,-0.5,-6.5,86,66,40,30.81,30.57,14,1,14,0.00
2014-1-8,48.3,26.9,12.2,22.2,12.2,3.5,75,56,31,30.84,30.69,5,0,5,0.00
2014-1-9,50.9,39.4,30.4,41.9,23.7,3.3,94,56,29,30.71,30.55,11,0,11,0.01
2014-1-10,56.8,50.3,42.0,52.6,48.7,40.7,98,94,85,30.54,30.14,13,0,13,0.23
2014-1-11,59.5,52.7,42.1,54.7,46.3,28.9,98,81,42,30.15,29.82,9,1,22,1.15
2014-1-12,54.7,43.3,34.4,36.1,32.3,27.0,91,68,36,30.35,30.05,15,0,15,0.00
2014-1-13,54.6,46.2,42.1,42.4,36.0,31.6,96,69,44,30.34,30.05,10,0,10,0.14
2014-1-14,51.0,45.2,41.2,45.0,37.6,29.8,97,77,49,30.17,29.95,12,1,12,0.23
2014-1-15,42.6,35.9,25.0,32.3,26.0,15.5,91,69,41,30.21,30.09,9,1,9,0.00
2014-1-16,41.9,28.8,18.3,18.5,14.7,8.9,86,60,29,30.30,30.16,5,0,5,0.00
2014-1-17,45.7,35.7,23.9,27.3,21.4,10.7,84,57,37,30.23,30.05,15,2,15,0.00
2014-1-18,39.0,28.0,18.6,14.3,11.8,7.2,78,53,28,30.36,30.18,16,1,16,0.00
2014-1-19,44.7,38.9,34.3,28.0,23.2,13.8,67,53,38,30.27,30.15,12,0,12,0.00
2014-1-20,59.6,44.3,28.7,28.2,24.8,20.0,79,48,29,30.23,30.05,8,0,8,0.00
2014-1-21,46.9,34.7,15.2,30.8,24.5,11.9,94,68,46,30.14,29.84,18,3,18,0.00
2014-1-22,29.7,18.0,7.3,12.3,2.8,-7.3,89,57,20,30.40,30.14,10,1,10,0.00
2014-1-23,27.3,20.1,10.5,13.2,6.5,-1.7,74,56,38,30.73,30.39,12,2,12,0.00
2014-1-24,29.4,15.5,2.4,2.7,-1.9,-7.3,86,52,21,30.87,30.52,8,0,8,0.00
2014-1-25,32.3,26.8,20.2,20.5,6.5,-6.6,63,43,29,30.52,30.06,8,0,8,0.00
2014-1-26,51.3,38.6,27.1,29.8,25.0,16.8,74,59,42,30.20,30.08,8,0,8,0.00
2014-1-27,48.4,40.3,22.6,34.6,25.0,3.4,65,54,38,30.28,30.04,14,1,14,0.00
2014-1-28,22.5,19.4,15.5,19.6,12.2,3.1,93,75,43,30.45,30.27,2,0,3,0.00
2014-1-29,28.8,15.9,5.6,13.2,4.0,-1.2,91,63,29,30.59,30.44,5,0,5,0.17
2014-1-30,42.2,23.9,10.6,14.8,7.6,1.1,81,53,22,30.60,30.41,5,0,8,0.05
2014-1-31,53.5,37.8,25.5,16.9,9.5,0.1,54,33,17,30.47,30.35,3,0,3,0.01
2014-2-1,61.6,48.7,39.1,40.7,20.6,3.6,84,37,13,30.36,30.23,11,0,11,0.00
2014-2-2,62.4,52.5,42.2,55.3,48.2,39.5,96,86,70,30.29,30.05,10,0,10,0.53
2014-2-3,60.6,46.8,38.4,58.2,45.2,37.4,98,94,83,30.33,29.94,24,1,24,0.85
2014-2-4,53.0,44.8,36.6,48.2,42.9,35.8,98,93,83,30.40,30.13,13,1,13,0.02
2014-2-5,50.4,40.8,25.5,49.9,38.3,23.2,98,91,78,30.38,29.99,16,2,16,0.27
2014-2-6,35.5,27.8,23.3,26.5,23.6,20.7,94,84,67,30.55,30.36,7,0,7,0.00
2014-2-7,44.3,32.2,24.9,30.5,25.9,19.4,97,80,42,30.59,30.45,3,0,5,0.00
2014-2-8,47.6,38.5,32.9,34.9,30.4,25.7,90,73,55,30.47,30.32,5,0,5,0.00
2014-2-9,50.2,39.4,31.8,39.3,35.2,29.9,95,85,65,30.38,30.22,7,0,7,0.00
2014-2-10,38.8,35.7,32.5,37.6,34.4,31.1,97,95,91,30.37,30.24,4,0,4,0.01
2014-2-11,35.5,33.6,32.0,34.6,33.0,31.2,98,98,95,30.45,30.34,4,0,4,0.17
2014-2-12,33.4,30.7,26.1,32.6,29.4,24.6,98,95,90,30.43,29.98,9,0,9,0.00
2014-2-13,34.8,31.1,28.1,33.1,30.1,27.4,98,96,90,30.08,29.89,10,0,10,0.20
2014-2-14,50.7,38.3,30.1,36.9,31.5,27.8,94,78,48,30.11,29.87,18,0,18,0.56
2014-2-15,38.4,30.6,26.8,36.8,25.6,18.5,97,83,52,30.34,29.82,18,3,18,0.07
2014-2-16,53.3,40.1,28.7,32.4,26.1,18.1,82,59,37,30.36,30.27,14,1,14,0.02
2014-2-17,56.2,44.6,37.4,42.4,32.8,29.0,95,64,41,30.41,30.25,14,1,14,0.08
2014-2-18,67.8,50.2,37.5,52.0,36.1,22.8,97,66,20,30.41,30.20,10,0,10,0.08
2014-2-19,65.7,59.0,53.9,56.8,54.3,51.8,96,85,65,30.20,30.12,10,1,10,0.10
2014-2-20,62.6,58.5,56.8,56.6,53.9,-99.9,94,86,77,30.21,29.99,14,-5,14,0.00
2014-2-21,61.9,50.0,40.4,57.9,35.2,18.6,96,61,29,30.25,29.88,13,2,13,0.88
2014-2-22,65.6,48.1,38.2,29.3,21.7,6.6,59,38,12,30.39,30.23,11,0,11,0.00
2014-2-23,70.2,55.8,46.5,33.3,27.3,-99.9,50,35,19,30.25,30.07,9,-3,9,0.00
2014-2-24,55.4,43.9,36.4,36.8,29.4,-99.9,90,60,30,30.29,30.11,9,-4,9,0.00
2014-2-25,56.6,44.3,35.1,35.0,26.9,20.1,73,51,38,30.28,30.09,10,1,10,0.00
2014-2-26,41.7,33.8,25.2,24.2,20.7,12.5,69,59,46,30.13,30.00,12,1,12,0.00
2014-2-27,41.6,27.6,19.1,12.9,7.0,-3.9,63,45,17,30.24,30.09,13,2,13,0.00
2014-2-28,51.2,36.7,23.0,19.1,13.4,9.9,62,40,20,30.39,30.23,12,0,12,0.00
2014-3-1,53.4,45.9,37.2,41.3,32.5,18.7,75,60,40,30.47,30.37,8,0,8,0.01
2014-3-2,59.2,51.7,49.7,45.5,41.6,40.3,73,68,61,30.40,30.34,6,0,6,0.00
2014-3-3,51.8,33.6,28.1,51.0,32.8,27.3,97,97,95,30.31,29.95,9,1,9,0.42
2014-3-4,44.8,36.0,29.2,37.7,33.0,28.5,98,89,74,30.40,30.26,7,0,7,0.02
2014-3-5,61.7,44.1,32.7,41.5,34.8,30.9,96,73,39,30.37,30.23,7,0,7,0.00
2014-3-6,51.6,41.8,36.2,37.7,24.2,8.3,85,55,20,30.32,30.14,9,0,11,0.00
2014-3-7,58.0,46.6,39.1,43.8,38.0,31.2,93,73,52,30.21,30.09,9,0,9,0.03
2014-3-8,65.9,51.7,40.4,41.3,37.0,32.0,91,61,30,30.31,30.19,11,0,11,0.00
2014-3-9,61.7,52.1,43.4,42.8,37.3,30.3,87,59,33,30.32,30.23,12,1,12,0.00
2014-3-10,67.8,54.1,43.9,44.2,37.4,29.6,83,55,34,30.28,30.06,11,1,11,0.00
2014-3-11,73.8,59.5,47.4,50.3,43.8,39.3,83,59,33,30.09,29.85,5,0,5,0.00
2014-3-12,65.2,51.7,32.0,56.8,46.2,22.6,97,82,61,30.04,29.59,18,3,23,0.10
2014-3-13,43.9,34.4,26.9,22.9,18.2,10.8,79,54,28,30.46,30.04,18,4,18,0.00
2014-3-14,63.2,46.1,30.8,34.0,20.3,13.2,54,38,21,30.49,30.29,12,1,12,0.00
2014-3-15,65.3,54.7,47.3,40.7,35.4,31.8,60,49,34,30.30,30.16,9,0,9,0.00
2014-3-16,54.5,50.7,47.1,50.6,46.1,37.2,97,86,55,30.16,29.77,9,0,9,0.80
2014-3-17,51.8,46.5,40.2,50.3,44.8,38.3,98,94,86,29.99,29.77,8,0,8,0.41
2014-3-18,57.4,45.4,38.8,46.4,41.4,37.3,97,87,64,30.23,29.96,15,1,15,0.00
2014-3-19,54.7,46.9,41.6,47.0,43.1,40.0,94,87,68,30.29,30.19,9,0,9,0.00
2014-3-20,58.1,49.2,40.9,45.7,31.4,17.6,95,57,22,30.29,30.20,12,1,12,0.00
2014-3-21,65.7,50.8,36.9,31.1,24.6,19.8,61,39,19,30.33,30.21,13,0,13,0.00
2014-3-22,68.6,59.5,53.5,43.6,36.1,26.0,60,42,33,30.24,30.12,8,0,8,0.00
2014-3-23,57.4,48.9,40.4,46.5,39.7,27.4,96,72,53,30.32,30.06,15,2,15,0.05
2014-3-24,57.7,42.6,29.1,30.7,25.0,21.3,83,54,27,30.40,30.18,7,0,7,0.00
2014-3-25,43.8,36.0,28.3,35.1,25.6,9.4,97,68,44,30.33,30.05,21,3,21,0.03
2014-3-26,47.6,33.8,22.8,13.7,9.8,4.7,65,40,19,30.52,30.33,14,2,14,0.00
2014-3-27,61.7,47.3,33.4,32.5,17.1,8.0,44,30,20,30.54,30.33,16,1,16,0.00
2014-3-28,56.9,53.1,49.5,54.2,49.4,32.6,97,88,44,30.37,30.19,15,1,15,0.06
2014-3-29,58.2,51.2,36.9,56.9,50.1,35.6,98,96,90,30.21,29.86,23,2,23,0.39
2014-3-30,55.4,43.2,33.7,35.9,32.4,28.1,97,70,37,30.34,30.11,20,4,20,0.01
2014-3-31,75.5,55.1,38.5,33.1,25.5,11.9,72,40,9,30.39,30.09,3,0,3,0.00
2014-4-1,79.6,62.0,51.6,44.2,26.7,16.4,39,27,14,30.14,30.02,11,0,11,0.00
2014-4-2,82.8,68.2,58.0,46.0,32.4,13.2,48,29,9,30.11,29.99,9,0,9,0.00
2014-4-3,80.5,69.4,61.9,58.1,54.4,45.3,80,60,41,30.05,29.88,11,1,11,0.00
2014-4-4,68.5,62.3,55.0,58.3,54.3,50.0,88,76,52,29.91,29.78,16,1,16,0.00
2014-4-5,61.4,50.8,39.9,52.4,39.2,31.4,92,68,33,30.06,29.90,11,1,11,0.00
2014-4-6,61.6,52.0,45.5,45.3,37.7,31.8,93,60,40,30.08,29.93,12,1,12,0.05
2014-4-7,56.7,50.3,46.0,55.5,49.2,44.8,98,96,92,29.97,29.65,13,1,13,2.50
2014-4-8,53.4,50.6,46.1,40.5,37.9,36.1,77,62,53,29.82,29.70,12,2,12,0.00
2014-4-9,60.7,51.0,44.5,43.5,37.8,30.2,93,65,34,30.16,29.82,14,2,14,0.01
2014-4-10,72.9,57.8,43.8,38.6,34.1,31.6,65,43,24,30.27,30.14,8,0,8,0.00
2014-4-11,74.2,62.3,52.3,45.1,38.9,27.0,72,45,18,30.21,30.07,11,1,11,0.00
2014-4-12,80.5,64.9,51.5,50.9,47.3,42.9,81,56,31,30.20,30.06,14,0,14,0.00
2014-4-13,77.8,67.4,59.9,55.9,53.0,50.6,77,61,42,30.11,29.95,13,1,13,0.00
2014-4-14,66.2,61.4,58.5,60.2,56.5,52.9,95,84,65,29.95,29.77,11,1,11,0.29
2014-4-15,61.3,45.2,33.4,59.0,41.8,24.3,97,88,67,30.09,29.61,17,2,17,0.41
2014-4-16,62.5,43.4,27.9,30.5,25.1,-99.9,86,54,21,30.35,30.09,14,-3,14,0.00
2014-4-17,65.5,50.6,38.6,40.1,31.2,26.0,64,49,30,30.44,30.32,11,1,11,0.00
2014-4-18,56.8,51.2,48.2,47.8,40.3,28.2,97,68,42,30.34,30.16,8,0,8,0.38
2014-4-19,61.8,53.7,47.9,53.3,48.3,43.0,98,83,61,30.19,30.09,5,0,5,0.09
2014-4-20,76.3,60.2,48.7,45.6,42.1,35.6,78,54,28,30.25,30.10,7,0,7,0.00
2014-4-21,77.3,62.5,51.3,46.5,39.1,32.7,54,43,29,30.17,29.94,7,0,7,0.00
2014-4-22,64.5,61.1,58.5,59.7,53.4,46.0,95,77,54,29.95,29.78,6,0,6,0.04
2014-4-23,72.8,59.7,48.1,56.9,40.3,29.0,95,56,20,29.96,29.82,7,1,10,0.00
2014-4-24,76.9,62.6,51.6,44.9,35.1,28.2,53,37,22,30.04,29.89,6,1,13,0.00
2014-4-25,72.2,64.8,56.2,58.4,50.7,43.2,83,61,46,29.93,29.78,17,2,17,0.00
2014-4-26,81.3,64.2,49.0,50.8,44.5,34.6,91,56,22,30.03,29.90,9,0,9,0.00
2014-4-27,83.0,68.7,58.8,60.6,51.7,42.5,94,57,36,29.98,29.86,14,0,14,0.06
2014-4-28,77.8,68.4,60.6,64.1,60.8,59.0,95,78,57,29.91,29.74,10,0,10,0.00
2014-4-29,74.0,67.9,63.2,63.5,60.7,58.7,89,78,65,29.87,29.73,11,0,11,0.69
2014-4-30,67.2,62.1,56.3,62.1,58.8,55.2,96,89,72,29.90,29.78,10,0,10,0.21
2014-5-1,64.6,56.1,50.3,55.5,46.6,38.7,97,74,41,29.98,29.88,8,0,8,0.00
2014-5-2,66.8,55.5,46.0,43.5,40.2,37.1,82,59,35,29.99,29.88,8,0,8,0.00
2014-5-3,71.5,58.4,45.7,46.4,42.1,38.7,83,57,36,30.04,29.92,13,1,13,0.00
2014-5-4,80.3,67.4,55.0,48.6,45.6,40.8,70,48,26,30.10,29.97,9,0,9,0.00
2014-5-5,84.3,72.4,63.6,54.7,49.9,41.3,67,47,23,30.01,29.87,9,0,9,0.00
2014-5-6,85.9,72.0,60.7,57.1,51.1,36.6,78,51,18,29.96,29.87,5,0,5,0.00
2014-5-7,85.6,71.3,60.4,58.8,51.5,39.6,86,53,23,30.09,29.96,8,0,8,0.00
2014-5-8,85.4,72.8,64.2,59.4,55.1,46.1,74,55,34,30.17,30.07,11,0,11,0.00
2014-5-9,74.6,66.9,59.5,64.7,58.8,53.9,96,77,59,30.10,30.02,9,0,9,0.73
2014-5-10,67.4,63.0,59.3,63.8,60.8,57.8,97,93,77,30.11,30.03,5,0,5,0.21
2014-5-11,81.4,67.0,57.1,67.7,61.2,56.0,98,83,47,30.16,30.06,8,0,8,0.00
2014-5-12,83.4,72.4,64.0,68.6,64.5,61.6,96,78,55,30.16,30.07,6,0,6,0.00
2014-5-13,84.0,73.4,66.0,66.8,62.8,59.2,91,71,46,30.12,30.03,8,0,8,0.00
2014-5-14,80.0,68.7,61.9,66.6,61.4,57.1,97,78,57,30.09,29.89,8,0,8,1.05
2014-5-15,63.8,56.9,46.5,62.9,55.2,43.2,98,94,82,30.03,29.85,10,0,10,0.19
2014-5-16,57.4,49.3,42.0,51.7,42.5,32.8,97,79,44,30.15,29.99,7,0,7,0.10
2014-5-17,57.3,49.1,42.4,50.9,44.2,36.8,96,84,61,30.25,30.14,3,0,3,0.07
2014-5-18,58.6,52.9,49.5,55.5,51.6,48.7,98,95,87,30.25,30.18,2,0,2,0.23
2014-5-19,72.8,58.5,49.7,56.8,51.9,46.6,98,81,45,30.29,30.18,6,0,6,0.00
2014-5-20,78.3,65.2,53.9,63.2,55.7,50.3,93,73,49,30.27,30.12,6,0,6,0.00
2014-5-21,80.5,70.0,59.3,65.5,59.3,55.1,88,70,52,30.15,30.02,9,0,9,0.00
2014-5-22,80.5,71.1,63.6,66.6,62.5,58.6,89,75,56,30.09,29.99,8,0,8,0.00
2014-5-23,81.2,71.5,64.6,68.8,65.2,62.6,96,82,58,30.05,29.97,7,0,7,0.00
2014-5-24,79.5,69.4,62.6,65.1,61.5,57.0,95,77,56,30.08,30.00,3,0,5,0.00
2014-5-25,78.9,65.6,60.0,67.1,60.1,54.8,97,83,60,30.14,30.06,1,0,3,0.15
2014-5-26,80.2,65.3,59.6,64.8,60.5,57.8,97,85,56,30.20,30.09,3,0,3,0.00
2014-5-27,80.6,70.3,63.4,68.9,64.6,61.6,96,83,61,30.13,29.98,6,0,6,0.00
2014-5-28,83.5,71.7,63.1,68.0,64.1,61.8,98,79,51,30.05,29.95,3,0,3,0.00
2014-5-29,79.8,70.1,62.9,70.7,64.6,60.8,96,84,63,30.03,29.95,3,0,3,0.01
2014-5-30,82.6,69.1,63.4,70.5,64.2,61.1,95,85,62,30.05,30.01,3,0,3,0.00
2014-5-31,71.1,67.5,65.5,69.3,66.0,64.2,96,95,92,30.11,30.04,1,0,2,0.16
2014-6-1,75.0,66.7,62.2,65.3,61.3,52.9,96,83,61,30.22,30.11,5,0,5,0.00
2014-6-2,76.5,66.1,58.5,62.4,57.7,55.2,93,75,54,30.23,30.10,8,0,8,0.00
2014-6-3,79.0,67.7,58.1,68.5,62.0,55.1,94,83,66,30.14,29.99,3,0,3,0.00
2014-6-4,83.5,72.0,61.5,70.4,65.9,60.3,98,83,58,30.00,29.82,4,0,4,0.00
2014-6-5,77.3,71.1,65.1,69.0,66.0,62.3,97,84,69,29.87,29.74,8,0,8,0.07
2014-6-6,80.9,71.4,65.1,69.5,66.2,64.2,98,85,60,29.93,29.85,6,0,6,0.03
2014-6-7,83.5,73.5,65.5,69.4,66.6,63.8,97,81,53,29.96,29.85,4,0,4,0.00
2014-6-8,79.2,70.7,63.1,68.7,65.0,61.9,98,84,61,29.92,29.83,6,0,6,0.30
2014-6-9,80.3,70.3,60.7,69.3,64.3,59.6,98,82,57,29.93,29.86,3,0,6,0.00
2014-6-10,84.3,69.3,61.3,71.8,65.3,60.4,98,88,59,29.99,29.87,13,0,13,0.27
2014-6-11,75.7,67.3,62.5,69.6,64.9,60.6,98,92,74,29.90,29.79,7,0,7,0.40
2014-6-12,73.3,66.5,63.0,69.3,64.9,62.4,98,95,81,29.89,29.81,4,0,4,0.65
2014-6-13,77.2,67.1,62.5,69.6,64.4,61.9,99,92,72,29.92,29.84,4,0,4,0.08
2014-6-20,84.8,78.7,72.2,69.9,67.5,65.4,82,69,54,29.99,29.96,0,0,5,0.01
2014-6-21,83.4,72.7,67.4,70.1,66.8,64.3,93,82,57,29.99,29.85,1,0,5,0.00
2014-6-22,84.5,73.4,64.7,70.3,66.4,62.0,98,81,56,29.93,29.83,3,0,3,0.02
2014-6-23,86.0,74.6,67.2,73.1,67.4,63.5,92,79,57,30.03,29.89,5,0,5,0.00
2014-6-24,79.1,71.6,67.1,72.2,67.8,64.9,97,88,73,30.04,29.96,4,0,4,0.17
2014-6-25,81.4,72.9,66.7,71.2,67.0,63.8,97,83,64,30.03,29.95,5,0,5,0.00
2014-6-26,83.7,72.8,65.2,69.1,66.1,63.6,97,81,55,30.04,29.92,2,0,2,0.00
2014-6-27,84.2,72.0,67.6,72.6,68.3,65.8,96,89,61,30.09,29.96,2,0,2,0.05
2014-6-28,81.4,71.6,65.8,72.2,68.2,64.9,98,90,62,30.19,30.08,3,0,3,0.24
2014-6-29,82.8,69.0,64.7,74.4,67.2,64.1,99,94,70,30.21,30.10,3,0,3,1.17
2014-6-30,78.7,69.3,64.3,73.1,67.7,63.9,99,95,79,30.11,29.97,1,0,1,0.41
2014-7-1,86.7,75.9,67.5,74.9,70.2,66.9,99,84,56,30.00,29.86,3,0,3,0.00
2014-7-2,88.9,77.5,68.6,72.6,69.9,65.5,98,80,51,29.96,29.89,2,0,2,0.00
2014-7-3,81.7,73.0,63.6,70.8,64.8,56.8,97,77,56,30.01,29.91,6,0,6,0.00
2014-7-4,80.2,68.0,58.0,65.2,59.2,55.8,93,75,51,30.17,30.00,5,0,5,0.00
2014-7-5,81.5,69.5,59.1,63.8,58.3,53.6,89,69,47,30.23,30.15,6,0,6,0.00
2014-7-6,81.8,71.7,63.8,67.0,62.0,55.2,92,73,51,30.16,30.02,3,0,3,0.00
2014-7-7,85.1,74.4,66.4,70.9,65.7,61.1,96,76,53,30.05,29.94,5,0,5,0.00
2014-7-8,83.3,72.1,65.2,71.2,65.3,59.6,98,80,61,30.04,29.94,8,0,8,0.40
2014-7-9,81.4,72.0,66.3,71.5,67.9,64.7,99,88,64,30.03,29.94,4,0,4,0.03
2014-7-10,83.2,72.5,64.5,72.5,67.4,63.6,99,85,62,30.09,29.98,3,0,3,0.00
2014-7-11,84.5,73.0,66.0,73.1,68.9,64.8,98,88,62,30.17,30.06,3,0,3,0.14
2014-7-12,84.8,72.7,67.7,73.3,69.0,66.3,98,89,64,30.18,30.10,6,0,6,0.05
2014-7-13,85.8,75.2,67.7,73.5,69.1,66.2,97,83,60,30.14,30.00,3,0,3,0.00
2014-7-14,84.9,75.9,70.8,76.3,70.3,67.1,96,83,65,30.02,29.88,4,0,4,0.33
2014-7-15,76.8,71.1,65.0,71.0,68.2,63.8,98,91,75,29.91,29.78,4,0,4,0.12
2014-7-16,76.9,65.9,57.2,64.4,59.2,55.4,98,81,54,29.97,29.84,4,0,4,0.01
2014-7-17,80.2,67.0,56.6,66.9,59.7,53.9,96,78,55,30.05,29.95,6,0,6,0.00
2014-7-18,69.2,66.8,64.4,68.3,64.3,58.9,98,92,74,30.11,30.03,2,0,2,0.32
2014-7-19,69.6,65.5,61.9,68.3,64.4,61.3,99,96,89,30.08,30.01,4,0,4,0.38
2014-7-20,80.1,70.8,63.5,72.7,67.3,62.7,98,89,72,30.07,29.98,4,0,4,0.00
2014-7-21,80.0,72.4,67.8,73.1,69.1,66.7,98,90,74,30.08,29.98,3,0,3,0.02
2014-7-22,83.3,74.0,67.3,72.5,68.8,65.5,96,85,65,30.12,30.02,6,0,6,0.00
2014-7-23,83.1,72.3,66.6,74.3,68.9,65.2,98,90,66,30.08,29.94,3,0,3,0.99
2014-7-24,81.0,71.6,66.5,74.2,68.9,65.9,99,92,74,29.98,29.88,3,0,3,0.07
2014-7-25,82.9,72.1,65.2,70.6,66.1,61.6,99,83,54,30.03,29.93,4,0,4,0.00
2014-7-26,84.6,72.3,60.7,70.2,64.6,59.5,98,79,52,30.04,29.95,5,0,5,0.00
2014-7-27,87.2,76.5,67.4,75.8,69.1,63.4,91,78,63,30.01,29.85,9,0,9,0.00
2014-7-28,77.5,71.4,65.3,71.0,64.7,59.8,98,81,58,29.93,29.83,11,0,11,0.40
2014-7-29,75.7,65.6,58.4,61.5,57.6,51.9,97,77,51,30.03,29.91,5,0,5,0.00
2014-7-30,76.7,64.1,53.2,64.8,57.1,51.3,96,79,55,30.08,30.02,2,0,2,0.00
2014-7-31,72.8,65.4,59.8,68.4,62.4,58.2,96,90,80,30.09,30.05,1,0,1,0.07
2014-8-1,78.9,68.0,63.7,70.7,64.7,61.3,98,90,69,30.08,29.99,8,0,8,0.96
2014-8-2,78.4,66.4,61.5,71.3,64.7,60.9,99,94,71,30.09,30.03,2,0,2,0.09
2014-8-3,80.7,69.1,60.8,71.4,64.7,60.2,99,87,62,30.11,30.01,2,0,2,0.00
2014-8-4,82.8,72.2,63.8,68.7,65.4,62.1,98,81,51,30.08,29.98,3,0,3,0.00
2014-8-5,81.2,71.4,62.9,67.5,63.4,57.5,98,78,46,30.07,29.99,4,0,4,0.00
2014-8-6,83.3,72.1,62.5,70.4,64.8,59.9,95,79,58,30.05,29.95,3,0,3,0.00
2014-8-7,85.3,75.5,67.9,72.1,67.6,62.4,96,78,47,30.00,29.91,2,0,2,0.00
2014-8-8,76.3,70.8,67.7,71.9,68.4,65.2,98,92,81,30.04,29.96,3,0,3,0.65
2014-8-9,82.5,73.1,66.4,73.7,68.7,64.6,97,87,66,30.05,29.92,2,0,2,0.07
2014-8-10,79.0,71.0,67.5,73.7,69.5,66.9,99,95,79,30.02,29.93,3,0,3,0.18
2014-8-11,82.2,72.8,66.2,74.3,69.3,65.6,99,90,71,30.01,29.87,1,0,4,0.00
2014-8-12,82.5,73.8,67.4,73.2,68.9,64.3,96,85,61,29.91,29.78,4,0,4,0.00
2014-8-13,75.8,67.0,59.1,65.2,61.1,57.3,98,82,61,30.01,29.87,3,0,4,0.00
2014-8-14,79.5,67.7,59.0,66.3,61.4,57.5,98,82,52,30.05,29.96,3,0,3,0.00
2014-8-15,80.8,69.2,59.3,66.6,62.2,58.2,99,81,48,30.04,29.95,4,0,4,0.00
2014-8-16,80.7,70.3,61.0,67.3,63.5,59.3,97,80,56,30.04,29.97,2,0,2,0.00
2014-8-17,85.1,73.7,67.0,71.5,66.3,60.6,93,79,57,30.03,29.89,3,0,3,0.02
2014-8-18,77.5,70.1,66.8,71.9,68.0,66.2,99,93,79,29.96,29.84,7,0,7,0.88
2014-8-19,80.5,70.6,66.1,71.7,67.7,65.5,99,91,69,29.92,29.83,5,0,5,0.09
2014-8-20,85.3,71.3,65.8,75.6,68.6,65.0,99,92,67,30.13,29.91,3,0,3,0.10
2014-8-21,83.5,71.9,62.2,74.2,67.8,61.7,99,88,63,30.14,30.06,1,0,3,0.01
2014-8-22,85.2,75.5,67.1,73.6,70.1,66.2,99,85,60,30.10,29.96,5,0,5,0.00
2014-8-23,84.8,73.6,69.5,75.6,70.6,68.4,98,91,69,30.00,29.88,5,0,5,0.08
2014-8-24,84.2,72.8,68.0,74.6,70.0,65.4,98,91,70,30.01,29.88,4,0,4,0.44
2014-8-25,79.8,69.8,64.3,71.4,64.9,60.1,92,85,71,30.08,29.99,2,0,2,0.00
2014-8-26,79.2,66.7,60.3,68.1,60.6,56.9,92,81,64,30.14,30.05,4,0,4,0.00
2014-8-27,73.0,70.9,68.8,66.8,66.2,65.2,89,85,80,30.03,30.02,0,0,0,0.00
2014-8-28,86.5,73.2,63.4,70.7,66.2,62.1,98,81,52,30.04,29.95,0,0,3,0.00
2014-8-29,88.5,75.3,67.0,69.0,64.5,60.9,93,71,42,30.08,29.99,4,0,4,0.00
2014-8-30,83.5,74.4,67.4,73.9,68.4,62.9,98,82,70,30.13,30.01,4,0,4,1.61
2014-8-31,84.3,72.8,65.0,73.6,68.6,64.4,99,88,61,30.14,30.06,4,0,4,0.08
2014-9-1,84.3,74.5,68.7,74.1,69.9,66.5,97,86,67,30.11,30.01,3,0,3,0.01
2014-9-2,84.6,76.0,68.3,74.8,70.2,66.9,97,83,65,30.08,29.93,2,0,2,0.02
2014-9-3,83.3,71.8,65.5,73.9,68.6,64.9,99,91,63,30.08,29.95,1,0,3,1.28
2014-9-4,78.3,70.4,66.3,73.4,68.5,65.3,98,94,79,30.14,30.05,2,0,2,0.07
2014-9-5,81.3,72.1,67.0,74.3,69.8,66.4,99,93,74,30.18,30.05,1,0,1,0.11
2014-9-6,79.2,71.0,65.7,73.9,69.4,65.4,99,95,79,30.08,29.95,1,0,1,0.13
2014-9-7,81.0,72.4,67.7,75.2,69.6,67.2,99,92,76,30.01,29.93,1,0,1,0.00
2014-9-8,81.7,71.8,67.2,73.9,68.4,65.5,97,89,71,30.05,29.97,2,0,3,0.02
2014-9-9,79.2,70.0,64.3,71.2,66.6,62.8,96,89,72,30.10,30.00,3,0,3,0.01
2014-9-10,78.8,70.1,64.6,71.2,66.7,63.2,97,89,73,30.08,29.98,4,0,4,0.00
2014-9-11,81.4,72.8,68.5,75.3,69.8,66.8,97,91,77,30.03,29.94,3,0,3,0.15
2014-9-12,82.8,72.1,66.4,74.8,69.6,65.8,99,92,70,30.04,29.94,3,0,3,0.08
2014-9-13,77.8,70.2,64.3,70.9,67.6,62.7,99,92,74,30.12,29.99,3,0,3,0.00
2014-9-14,74.3,67.6,63.0,69.1,65.2,62.1,99,92,82,30.17,30.08,2,0,3,0.00
2014-9-15,79.0,69.1,62.1,70.7,66.1,60.9,98,91,73,30.18,30.07,3,0,3,0.03
2014-9-16,77.7,70.4,66.9,69.9,67.0,65.7,99,90,69,30.11,29.94,3,0,3,0.03
2014-9-17,76.7,67.0,60.4,67.2,62.3,57.3,97,86,64,29.97,29.85,4,0,4,0.00
2014-9-18,77.8,65.7,56.7,62.9,59.2,53.9,99,82,45,30.01,29.91,2,0,2,0.00
2014-9-19,79.0,68.3,62.1,66.7,62.7,58.7,97,83,61,30.13,30.00,3,0,4,0.00
2014-9-20,79.3,68.4,62.2,65.5,61.0,58.8,92,78,55,30.15,30.00,4,0,4,0.00
2014-9-21,79.0,67.4,58.9,68.1,62.6,57.5,97,86,65,30.04,29.89,2,0,5,0.09
2014-9-22,71.6,63.1,55.2,65.4,57.5,52.2,98,84,60,30.05,29.93,4,0,5,0.00
2014-9-23,72.3,64.0,50.6,61.0,56.8,49.8,98,79,59,30.24,30.18,3,0,3,0.00
2014-9-24,73.9,61.7,51.8,62.6,54.9,49.8,94,80,58,30.30,30.19,3,0,3,0.00
2014-9-25,75.7,64.8,57.7,65.4,59.8,54.0,94,84,67,30.23,30.11,2,0,2,0.00
2014-9-26,76.2,65.9,59.3,66.0,61.7,57.8,98,87,69,30.17,30.09,3,0,3,0.00
2014-9-27,74.5,66.1,61.6,63.6,60.3,57.1,95,82,64,30.18,30.09,3,0,3,0.00
2014-9-28,73.3,65.3,59.2,65.6,61.1,55.6,95,87,69,30.15,30.04,2,0,2,0.00
2014-9-29,67.6,64.3,61.9,65.7,62.9,60.9,98,96,92,30.05,29.92,0,0,1,0.08
2014-9-30,76.4,65.1,58.1,65.9,60.8,57.4,99,87,59,29.97,29.87,3,0,4,0.00
2014-10-1,76.7,64.9,56.0,63.6,58.7,54.2,99,82,49,30.03,29.91,3,0,3,0.00
2014-10-2,81.2,68.2,60.2,66.2,61.2,57.4,97,80,50,30.11,29.98,3,0,3,0.00
2014-10-3,73.4,66.6,60.5,67.4,62.9,55.9,98,88,75,30.00,29.81,5,0,7,0.34
2014-10-4,60.3,49.4,40.2,55.8,39.7,31.0,92,71,48,29.97,29.83,6,0,8,0.00
2014-10-5,63.9,49.1,37.3,46.1,38.7,32.5,93,70,41,30.08,29.97,4,0,4,0.00
2014-10-6,69.4,58.3,53.2,59.6,51.3,43.3,97,78,63,30.06,29.96,5,0,8,0.19
2014-10-7,72.3,61.7,54.8,64.8,58.5,52.7,99,90,75,30.10,29.97,5,0,5,0.58
2014-10-13,67.3,63.8,59.4,64.6,62.2,58.3,99,95,90,30.13,29.95,10,0,10,0.09
2014-10-14,66.6,63.6,53.5,66.0,62.9,51.8,99,98,91,29.95,29.65,13,0,13,3.15
2014-10-15,58.8,52.9,50.9,52.5,50.9,49.6,98,93,75,29.88,29.83,3,0,8,0.10
2014-10-16,54.4,51.3,48.1,51.7,50.2,47.3,99,96,88,29.97,29.81,5,0,5,0.04
2014-10-17,72.4,56.1,43.9,58.6,50.8,43.6,100,85,53,30.01,29.90,4,0,6,0.00
2014-10-18,62.7,57.1,48.0,56.2,50.6,43.6,96,80,60,30.02,29.85,11,1,11,0.00
2014-10-19,66.8,52.3,42.0,51.1,45.1,39.8,95,78,48,30.18,30.01,3,0,3,0.00
2014-10-20,67.5,55.4,47.8,53.3,49.5,45.6,96,82,54,30.13,29.98,4,0,4,0.01
2014-10-21,63.4,54.5,49.0,53.0,48.3,44.1,97,81,56,30.03,29.95,9,1,9,0.00
2014-10-22,60.6,48.6,39.8,45.4,41.4,37.6,93,78,51,30.17,30.01,6,0,6,0.00
2014-10-23,63.4,47.4,35.3,47.6,42.0,34.1,99,83,49,30.18,30.06,5,0,5,0.00
2014-10-24,67.3,52.8,42.9,49.0,43.5,35.5,98,74,33,30.11,30.01,4,0,4,0.00
2014-10-25,69.7,55.2,43.7,53.2,45.4,37.3,91,72,37,30.11,30.01,6,0,6,0.00
2014-10-26,74.0,62.2,54.3,59.4,53.4,45.8,98,76,37,30.05,29.96,7,0,7,0.00
2014-10-27,82.1,65.2,54.5,61.4,55.9,51.9,94,74,43,30.11,30.01,4,0,4,0.00
2014-10-28,74.1,65.6,60.6,59.5,56.8,51.1,89,74,50,30.11,30.03,7,0,7,0.00
2014-10-29,62.4,55.8,44.0,60.1,52.4,41.5,98,89,74,30.06,29.98,3,0,3,0.06
2014-10-30,62.0,48.7,40.9,43.6,39.4,33.3,96,74,35,30.11,29.99,4,0,4,0.00
2014-10-31,52.9,43.7,32.3,43.7,38.9,31.3,97,84,56,30.00,29.86,18,0,18,0.04
2014-11-1,33.1,31.6,31.0,31.6,30.6,30.0,97,96,93,30.04,29.88,8,1,8,0.00